sensor_id;sensor_type;location;lat;lon;timestamp;pressure;altitude;pressure_sealevel;temperature;humidity
16100;BME280;8154;50.830;12.082;2022-08-03T00:01:46;99549.03;;;27.28;39.04
16100;BME280;8154;50.830;12.082;2022-08-03T00:04:30;99555.69;;;27.25;38.91
16100;BME280;8154;50.830;12.082;2022-08-03T00:07:16;99555.84;;;27.24;38.99
16100;BME280;8154;50.830;12.082;2022-08-03T00:09:59;99547.81;;;27.24;38.98
16100;BME280;8154;50.830;12.082;2022-08-03T00:12:43;99548.81;;;27.23;38.98
16100;BME280;8154;50.830;12.082;2022-08-03T00:15:27;99559.16;;;27.26;38.86
16100;BME280;8154;50.830;12.082;2022-08-03T00:18:11;99551.72;;;27.21;38.91
16100;BME280;8154;50.830;12.082;2022-08-03T00:20:55;99552.34;;;27.23;38.71
16100;BME280;8154;50.830;12.082;2022-08-03T00:23:40;99557.94;;;27.22;38.82
16100;BME280;8154;50.830;12.082;2022-08-03T00:26:24;99560.19;;;27.25;38.72
16100;BME280;8154;50.830;12.082;2022-08-03T00:29:09;99553.19;;;27.24;38.77
16100;BME280;8154;50.830;12.082;2022-08-03T00:31:53;99556.88;;;27.23;38.64
16100;BME280;8154;50.830;12.082;2022-08-03T00:34:37;99549.25;;;27.20;38.73
16100;BME280;8154;50.830;12.082;2022-08-03T00:37:21;99551.94;;;27.26;38.71
16100;BME280;8154;50.830;12.082;2022-08-03T00:40:06;99548.41;;;27.26;38.49
16100;BME280;8154;50.830;12.082;2022-08-03T00:45:41;99549.66;;;27.30;38.63
16100;BME280;8154;50.830;12.082;2022-08-03T00:48:26;99544.06;;;27.31;38.23
16100;BME280;8154;50.830;12.082;2022-08-03T00:51:10;99542.19;;;27.32;38.11
16100;BME280;8154;50.830;12.082;2022-08-03T00:53:54;99548.81;;;27.29;38.25
16100;BME280;8154;50.830;12.082;2022-08-03T00:56:39;99550.31;;;27.25;38.34
16100;BME280;8154;50.830;12.082;2022-08-03T00:59:23;99543.06;;;27.26;38.24
16100;BME280;8154;50.830;12.082;2022-08-03T01:02:07;99549.66;;;27.23;38.42
16100;BME280;8154;50.830;12.082;2022-08-03T01:04:52;99542.66;;;27.22;38.33
16100;BME280;8154;50.830;12.082;2022-08-03T01:11:09;99553.78;;;27.26;38.27
16100;BME280;8154;50.830;12.082;2022-08-03T01:14:08;99550.44;;;27.30;38.08
16100;BME280;8154;50.830;12.082;2022-08-03T01:16:59;99550.44;;;27.30;37.98
16100;BME280;8154;50.830;12.082;2022-08-03T01:20:05;99550.44;;;27.30;37.85
16100;BME280;8154;50.830;12.082;2022-08-03T01:31:38;99553.19;;;27.24;37.81
16100;BME280;8154;50.830;12.082;2022-08-03T01:34:28;99550.31;;;27.25;37.93
16100;BME280;8154;50.830;12.082;2022-08-03T01:37:20;99541.38;;;27.31;37.66
16100;BME280;8154;50.830;12.082;2022-08-03T01:40:07;99545.47;;;27.34;37.55
16100;BME280;8154;50.830;12.082;2022-08-03T01:42:58;99538.91;;;27.30;37.59
16100;BME280;8154;50.830;12.082;2022-08-03T01:45:44;99542.03;;;27.27;37.60
16100;BME280;8154;50.830;12.082;2022-08-03T01:48:29;99536.91;;;27.19;37.60
16100;BME280;8154;50.830;12.082;2022-08-03T01:51:17;99542.47;;;27.17;37.68
16100;BME280;8154;50.830;12.082;2022-08-03T01:54:03;99537.72;;;27.19;37.68
16100;BME280;8154;50.830;12.082;2022-08-03T01:56:51;99535.84;;;27.20;37.59
16100;BME280;8154;50.830;12.082;2022-08-03T01:59:37;99539.16;;;27.22;37.54
16100;BME280;8154;50.830;12.082;2022-08-03T02:02:23;99537.72;;;27.19;37.54
16100;BME280;8154;50.830;12.082;2022-08-03T02:05:09;99529.81;;;27.24;37.51
16100;BME280;8154;50.830;12.082;2022-08-03T02:07:55;99538.09;;;27.23;37.42
16100;BME280;8154;50.830;12.082;2022-08-03T02:10:41;99541.00;;;27.21;37.19
16100;BME280;8154;50.830;12.082;2022-08-03T02:13:27;99527.56;;;27.21;37.03
16100;BME280;8154;50.830;12.082;2022-08-03T02:16:12;99533.78;;;27.22;37.01
16100;BME280;8154;50.830;12.082;2022-08-03T02:18:57;99539.16;;;27.22;37.44
16100;BME280;8154;50.830;12.082;2022-08-03T02:21:44;99534.81;;;27.21;37.19
16100;BME280;8154;50.830;12.082;2022-08-03T02:24:30;99531.31;;;27.20;37.01
16100;BME280;8154;50.830;12.082;2022-08-03T02:27:23;99528.84;;;27.25;37.04
16100;BME280;8154;50.830;12.082;2022-08-03T02:30:09;99527.34;;;27.23;36.86
16100;BME280;8154;50.830;12.082;2022-08-03T02:32:56;99536.03;;;27.25;36.86
16100;BME280;8154;50.830;12.082;2022-08-03T02:35:41;99527.13;;;27.24;36.93
16100;BME280;8154;50.830;12.082;2022-08-03T02:38:30;99521.19;;;27.22;37.06
16100;BME280;8154;50.830;12.082;2022-08-03T02:41:17;99526.34;;;27.24;36.91
16100;BME280;8154;50.830;12.082;2022-08-03T02:44:07;99522.44;;;27.20;36.88
16100;BME280;8154;50.830;12.082;2022-08-03T02:46:54;99531.09;;;27.22;36.92
16100;BME280;8154;50.830;12.082;2022-08-03T02:49:40;99531.53;;;27.19;36.91
16100;BME280;8154;50.830;12.082;2022-08-03T02:52:27;99532.94;;;27.21;36.81
16100;BME280;8154;50.830;12.082;2022-08-03T02:55:13;99524.09;;;27.21;36.85
16100;BME280;8154;50.830;12.082;2022-08-03T02:57:59;99534.22;;;27.19;36.71
16100;BME280;8154;50.830;12.082;2022-08-03T03:00:44;99523.47;;;27.19;36.62
16100;BME280;8154;50.830;12.082;2022-08-03T03:03:29;99524.53;;;27.18;36.62
16100;BME280;8154;50.830;12.082;2022-08-03T03:06:16;99522.81;;;27.23;36.60
16100;BME280;8154;50.830;12.082;2022-08-03T03:09:00;99528.84;;;27.25;36.67
16100;BME280;8154;50.830;12.082;2022-08-03T03:11:45;99527.13;;;27.24;36.59
16100;BME280;8154;50.830;12.082;2022-08-03T03:14:33;99527.34;;;27.23;36.51
16100;BME280;8154;50.830;12.082;2022-08-03T03:17:18;99527.97;;;27.25;36.51
16100;BME280;8154;50.830;12.082;2022-08-03T03:20:05;99521.59;;;27.26;36.52
16100;BME280;8154;50.830;12.082;2022-08-03T03:22:51;99522.19;;;27.28;36.32
16100;BME280;8154;50.830;12.082;2022-08-03T03:25:36;99523.25;;;27.27;36.31
16100;BME280;8154;50.830;12.082;2022-08-03T03:28:25;99522.41;;;27.26;36.33
16100;BME280;8154;50.830;12.082;2022-08-03T03:31:10;99522.00;;;27.23;36.27
16100;BME280;8154;50.830;12.082;2022-08-03T03:33:56;99516.47;;;27.18;36.34
16100;BME280;8154;50.830;12.082;2022-08-03T03:36:42;99513.41;;;27.14;36.41
16100;BME280;8154;50.830;12.082;2022-08-03T03:39:26;99513.63;;;27.13;36.32
16100;BME280;8154;50.830;12.082;2022-08-03T03:42:10;99528.06;;;27.12;36.46
16100;BME280;8154;50.830;12.082;2022-08-03T03:44:54;99524.56;;;27.11;36.51
16100;BME280;8154;50.830;12.082;2022-08-03T03:47:38;99525.38;;;27.12;36.46
16100;BME280;8154;50.830;12.082;2022-08-03T03:50:23;99531.56;;;27.12;36.35
16100;BME280;8154;50.830;12.082;2022-08-03T03:53:09;99524.75;;;27.16;36.28
16100;BME280;8154;50.830;12.082;2022-08-03T03:55:54;99525.94;;;27.20;36.00
16100;BME280;8154;50.830;12.082;2022-08-03T03:58:38;99528.63;;;27.20;36.23
16100;BME280;8154;50.830;12.082;2022-08-03T04:01:23;99522.28;;;27.15;36.32
16100;BME280;8154;50.830;12.082;2022-08-03T04:04:07;99526.22;;;27.12;36.28
16100;BME280;8154;50.830;12.082;2022-08-03T04:07:10;99521.28;;;27.09;36.32
16100;BME280;8154;50.830;12.082;2022-08-03T04:10:22;99524.84;;;27.03;36.40
16100;BME280;8154;50.830;12.082;2022-08-03T04:13:33;99520.94;;;26.99;36.53
16100;BME280;8154;50.830;12.082;2022-08-03T04:16:20;99527.13;;;27.00;36.46
16100;BME280;8154;50.830;12.082;2022-08-03T04:19:11;99519.06;;;27.00;36.62
16100;BME280;8154;50.830;12.082;2022-08-03T04:22:02;99520.16;;;26.92;36.43
16100;BME280;8154;50.830;12.082;2022-08-03T04:24:59;99525.09;;;26.95;36.49
16100;BME280;8154;50.830;12.082;2022-08-03T04:27:46;99523.66;;;26.93;36.38
16100;BME280;8154;50.830;12.082;2022-08-03T04:30:35;99525.13;;;26.89;36.58
16100;BME280;8154;50.830;12.082;2022-08-03T04:33:21;99528.41;;;26.91;36.61
16100;BME280;8154;50.830;12.082;2022-08-03T04:36:09;99525.94;;;26.89;36.68
16100;BME280;8154;50.830;12.082;2022-08-03T04:41:47;99539.97;;;26.91;36.67
16100;BME280;8154;50.830;12.082;2022-08-03T04:44:38;99537.72;;;26.88;36.50
16100;BME280;8154;50.830;12.082;2022-08-03T04:47:31;99536.69;;;26.89;36.62
16100;BME280;8154;50.830;12.082;2022-08-03T04:50:16;99541.00;;;26.90;36.71
16100;BME280;8154;50.830;12.082;2022-08-03T04:53:01;99539.16;;;26.91;36.48
16100;BME280;8154;50.830;12.082;2022-08-03T04:55:46;99539.75;;;26.93;36.72
16100;BME280;8154;50.830;12.082;2022-08-03T04:58:31;99543.88;;;26.95;36.77
16100;BME280;8154;50.830;12.082;2022-08-03T05:01:16;99539.34;;;26.96;36.80
16100;BME280;8154;50.830;12.082;2022-08-03T05:04:01;99543.66;;;26.97;36.79
16100;BME280;8154;50.830;12.082;2022-08-03T05:06:45;99537.47;;;26.96;36.83
16100;BME280;8154;50.830;12.082;2022-08-03T05:09:29;99538.50;;;26.95;36.97
16100;BME280;8154;50.830;12.082;2022-08-03T05:12:13;99544.50;;;26.91;36.90
16100;BME280;8154;50.830;12.082;2022-08-03T05:14:57;99553.38;;;26.91;36.98
16100;BME280;8154;50.830;12.082;2022-08-03T05:17:42;99551.28;;;26.93;37.15
16100;BME280;8154;50.830;12.082;2022-08-03T05:20:27;99558.09;;;26.96;37.10
16100;BME280;8154;50.830;12.082;2022-08-03T05:23:11;99551.91;;;26.95;36.95
16100;BME280;8154;50.830;12.082;2022-08-03T05:25:55;99552.53;;;26.97;37.21
16100;BME280;8154;50.830;12.082;2022-08-03T05:28:40;99556.84;;;26.98;37.24
16100;BME280;8154;50.830;12.082;2022-08-03T05:31:24;99553.34;;;26.98;37.42
16100;BME280;8154;50.830;12.082;2022-08-03T05:34:08;99547.78;;;26.99;37.36
16100;BME280;8154;50.830;12.082;2022-08-03T05:36:53;99549.63;;;26.99;37.29
16100;BME280;8154;50.830;12.082;2022-08-03T05:39:37;99545.69;;;27.01;37.53
16100;BME280;8154;50.830;12.082;2022-08-03T05:42:21;99549.81;;;27.04;37.57
16100;BME280;8154;50.830;12.082;2022-08-03T05:45:06;99545.63;;;27.08;37.55
16100;BME280;8154;50.830;12.082;2022-08-03T05:48:01;99542.13;;;27.07;37.41
16100;BME280;8154;50.830;12.082;2022-08-03T05:50:45;99539.00;;;27.10;37.47
16100;BME280;8154;50.830;12.082;2022-08-03T05:53:32;99546.84;;;27.12;37.61
16100;BME280;8154;50.830;12.082;2022-08-03T05:56:21;99545.59;;;27.14;37.59
16100;BME280;8154;50.830;12.082;2022-08-03T05:59:06;99550.13;;;27.14;37.52
16100;BME280;8154;50.830;12.082;2022-08-03T06:01:50;99549.75;;;27.10;37.68
16100;BME280;8154;50.830;12.082;2022-08-03T06:04:35;99551.41;;;27.11;37.65
16100;BME280;8154;50.830;12.082;2022-08-03T06:07:19;99554.88;;;27.12;37.78
16100;BME280;8154;50.830;12.082;2022-08-03T06:10:04;99554.31;;;27.10;37.79
16100;BME280;8154;50.830;12.082;2022-08-03T06:12:49;99553.25;;;27.11;37.83
16100;BME280;8154;50.830;12.082;2022-08-03T06:15:34;99552.22;;;27.12;37.90
16100;BME280;8154;50.830;12.082;2022-08-03T06:18:18;99555.50;;;27.14;37.93
16100;BME280;8154;50.830;12.082;2022-08-03T06:21:03;99551.81;;;27.15;37.75
16100;BME280;8154;50.830;12.082;2022-08-03T06:23:47;99552.38;;;27.17;37.84
16100;BME280;8154;50.830;12.082;2022-08-03T06:26:32;99550.31;;;27.19;37.98
16100;BME280;8154;50.830;12.082;2022-08-03T06:29:17;99554.19;;;27.23;37.85
16100;BME280;8154;50.830;12.082;2022-08-03T06:32:01;99548.25;;;27.21;37.95
16100;BME280;8154;50.830;12.082;2022-08-03T06:34:45;99549.25;;;27.20;38.20
16100;BME280;8154;50.830;12.082;2022-08-03T06:37:30;99548.25;;;27.21;38.14
16100;BME280;8154;50.830;12.082;2022-08-03T06:40:19;99549.88;;;27.22;38.24
16100;BME280;8154;50.830;12.082;2022-08-03T06:43:06;99547.19;;;27.22;38.28
16100;BME280;8154;50.830;12.082;2022-08-03T06:45:51;99547.41;;;27.27;38.10
16100;BME280;8154;50.830;12.082;2022-08-03T06:48:35;99556.25;;;27.27;38.25
16100;BME280;8154;50.830;12.082;2022-08-03T06:51:19;99550.66;;;27.29;38.41
16100;BME280;8154;50.830;12.082;2022-08-03T06:54:04;99548.16;;;27.34;38.25
16100;BME280;8154;50.830;12.082;2022-08-03T06:56:48;99550.84;;;27.34;38.31
16100;BME280;8154;50.830;12.082;2022-08-03T06:59:32;99549.59;;;27.37;38.26
16100;BME280;8154;50.830;12.082;2022-08-03T07:02:17;99545.03;;;27.37;38.36
16100;BME280;8154;50.830;12.082;2022-08-03T07:05:02;99544.59;;;27.40;38.40
16100;BME280;8154;50.830;12.082;2022-08-03T07:07:46;99545.44;;;27.41;38.34
16100;BME280;8154;50.830;12.082;2022-08-03T07:10:30;99546.69;;;27.38;38.59
16100;BME280;8154;50.830;12.082;2022-08-03T07:13:15;99544.16;;;27.43;38.49
16100;BME280;8154;50.830;12.082;2022-08-03T07:15:59;99545.81;;;27.44;38.48
16100;BME280;8154;50.830;12.082;2022-08-03T07:18:44;99544.56;;;27.47;38.37
16100;BME280;8154;50.830;12.082;2022-08-03T07:21:28;99542.25;;;27.50;38.37
16100;BME280;8154;50.830;12.082;2022-08-03T07:24:12;99542.25;;;27.50;38.71
16100;BME280;8154;50.830;12.082;2022-08-03T07:26:56;99542.88;;;27.52;38.52
16100;BME280;8154;50.830;12.082;2022-08-03T07:29:40;99532.94;;;27.53;38.51
16100;BME280;8154;50.830;12.082;2022-08-03T07:32:25;99542.00;;;27.58;38.55
16100;BME280;8154;50.830;12.082;2022-08-03T07:35:11;99539.53;;;27.57;38.71
16100;BME280;8154;50.830;12.082;2022-08-03T07:37:55;99534.50;;;27.60;38.69
16100;BME280;8154;50.830;12.082;2022-08-03T07:40:39;99539.00;;;27.66;38.59
16100;BME280;8154;50.830;12.082;2022-08-03T07:43:24;99536.94;;;27.68;38.59
16100;BME280;8154;50.830;12.082;2022-08-03T07:46:08;99535.69;;;27.71;38.61
16100;BME280;8154;50.830;12.082;2022-08-03T07:48:52;99538.78;;;27.68;38.60
16100;BME280;8154;50.830;12.082;2022-08-03T07:51:37;99541.84;;;27.71;38.79
16100;BME280;8154;50.830;12.082;2022-08-03T07:54:21;99531.94;;;27.72;38.69
16100;BME280;8154;50.830;12.082;2022-08-03T07:57:05;99536.66;;;27.76;38.72
16100;BME280;8154;50.830;12.082;2022-08-03T07:59:49;99530.22;;;27.77;38.62
16100;BME280;8154;50.830;12.082;2022-08-03T08:02:34;99532.69;;;27.79;38.81
16100;BME280;8154;50.830;12.082;2022-08-03T08:05:18;99526.06;;;27.81;38.61
16100;BME280;8154;50.830;12.082;2022-08-03T08:08:03;99526.06;;;27.81;38.76
16100;BME280;8154;50.830;12.082;2022-08-03T08:10:48;99528.75;;;27.81;38.78
16100;BME280;8154;50.830;12.082;2022-08-03T08:13:34;99520.47;;;27.83;38.73
16100;BME280;8154;50.830;12.082;2022-08-03T08:16:18;99523.44;;;27.75;38.77
16100;BME280;8154;50.830;12.082;2022-08-03T08:19:03;99524.28;;;27.75;39.03
16100;BME280;8154;50.830;12.082;2022-08-03T08:21:48;99519.47;;;27.77;38.75
16100;BME280;8154;50.830;12.082;2022-08-03T08:24:32;99509.94;;;27.81;38.61
16100;BME280;8154;50.830;12.082;2022-08-03T08:27:17;99511.19;;;27.79;38.73
16100;BME280;8154;50.830;12.082;2022-08-03T08:30:03;99508.97;;;27.76;38.81
16100;BME280;8154;50.830;12.082;2022-08-03T08:32:49;99507.31;;;27.75;38.83
16100;BME280;8154;50.830;12.082;2022-08-03T08:35:34;99501.13;;;27.74;38.84
16100;BME280;8154;50.830;12.082;2022-08-03T08:38:18;99501.88;;;27.81;38.36
16100;BME280;8154;50.830;12.082;2022-08-03T08:41:02;99504.13;;;27.84;38.22
16100;BME280;8154;50.830;12.082;2022-08-03T08:43:46;99504.13;;;27.84;38.19
16100;BME280;8154;50.830;12.082;2022-08-03T08:46:31;99503.31;;;27.84;38.16
16100;BME280;8154;50.830;12.082;2022-08-03T08:49:21;99510.06;;;27.86;37.45
16100;BME280;8154;50.830;12.082;2022-08-03T08:52:07;99508.63;;;27.90;37.47
16100;BME280;8154;50.830;12.082;2022-08-03T08:54:57;99505.50;;;27.93;37.32
16100;BME280;8154;50.830;12.082;2022-08-03T08:57:54;99504.22;;;27.96;37.18
16100;BME280;8154;50.830;12.082;2022-08-03T09:00:43;99510.72;;;27.88;37.11
16100;BME280;8154;50.830;12.082;2022-08-03T09:03:28;99504.72;;;27.86;36.74
16100;BME280;8154;50.830;12.082;2022-08-03T09:06:12;99505.75;;;27.85;36.94
16100;BME280;8154;50.830;12.082;2022-08-03T09:08:58;99502.84;;;27.87;36.55
16100;BME280;8154;50.830;12.082;2022-08-03T09:11:43;99503.06;;;27.85;36.53
16100;BME280;8154;50.830;12.082;2022-08-03T09:14:28;99498.34;;;27.87;36.46
16100;BME280;8154;50.830;12.082;2022-08-03T09:17:13;99499.53;;;27.91;36.10
16100;BME280;8154;50.830;12.082;2022-08-03T09:20:05;99492.31;;;27.92;36.06
16100;BME280;8154;50.830;12.082;2022-08-03T09:22:52;99491.69;;;27.90;36.19
16100;BME280;8154;50.830;12.082;2022-08-03T09:25:39;99486.31;;;27.90;35.62
16100;BME280;8154;50.830;12.082;2022-08-03T09:28:32;99499.97;;;27.88;35.51
16100;BME280;8154;50.830;12.082;2022-08-03T09:31:17;99492.34;;;27.85;35.48
16100;BME280;8154;50.830;12.082;2022-08-03T09:34:06;99483.41;;;27.91;35.19
16100;BME280;8154;50.830;12.082;2022-08-03T09:36:52;99485.66;;;27.94;35.13
16100;BME280;8154;50.830;12.082;2022-08-03T09:39:37;99490.34;;;27.99;35.16
16100;BME280;8154;50.830;12.082;2022-08-03T09:42:21;99475.66;;;28.01;34.93
16100;BME280;8154;50.830;12.082;2022-08-03T09:45:26;99485.41;;;27.96;34.68
16100;BME280;8154;50.830;12.082;2022-08-03T09:48:26;99483.41;;;27.91;34.54
16100;BME280;8154;50.830;12.082;2022-08-03T09:51:12;99475.97;;;27.93;34.48
16100;BME280;8154;50.830;12.082;2022-08-03T09:53:59;99476.34;;;27.97;34.58
16100;BME280;8154;50.830;12.082;2022-08-03T09:56:46;99462.44;;;28.00;34.16
16100;BME280;8154;50.830;12.082;2022-08-03T09:59:32;99458.94;;;27.99;34.26
16100;BME280;8154;50.830;12.082;2022-08-03T10:02:34;99467.16;;;28.04;34.21
16100;BME280;8154;50.830;12.082;2022-08-03T10:05:31;99459.09;;;28.04;34.08
16100;BME280;8154;50.830;12.082;2022-08-03T10:08:17;99460.34;;;28.02;34.09
16100;BME280;8154;50.830;12.082;2022-08-03T10:11:02;99462.00;;;28.03;34.14
16100;BME280;8154;50.830;12.082;2022-08-03T10:13:46;99453.50;;;28.06;34.26
16100;BME280;8154;50.830;12.082;2022-08-03T10:16:43;99453.94;;;28.03;34.41
16100;BME280;8154;50.830;12.082;2022-08-03T10:19:27;99451.81;;;28.05;34.37
16100;BME280;8154;50.830;12.082;2022-08-03T10:22:14;99452.66;;;28.05;34.43
16100;BME280;8154;50.830;12.082;2022-08-03T10:25:08;99444.38;;;28.07;34.12
16100;BME280;8154;50.830;12.082;2022-08-03T10:27:55;99442.06;;;28.10;33.87
16100;BME280;8154;50.830;12.082;2022-08-03T10:30:43;99444.28;;;28.13;33.84
16100;BME280;8154;50.830;12.082;2022-08-03T10:33:33;99434.84;;;28.11;34.00
16100;BME280;8154;50.830;12.082;2022-08-03T10:36:22;99440.56;;;28.14;33.88
16100;BME280;8154;50.830;12.082;2022-08-03T10:39:07;99437.63;;;28.16;33.64
16100;BME280;8154;50.830;12.082;2022-08-03T10:41:53;99438.09;;;28.13;33.51
16100;BME280;8154;50.830;12.082;2022-08-03T10:44:41;99440.56;;;28.14;33.48
16100;BME280;8154;50.830;12.082;2022-08-03T10:47:25;99426.09;;;28.15;33.44
16100;BME280;8154;50.830;12.082;2022-08-03T10:50:10;99428.91;;;28.20;33.25
16100;BME280;8154;50.830;12.082;2022-08-03T10:52:56;99421.28;;;28.17;33.63
16100;BME280;8154;50.830;12.082;2022-08-03T10:55:43;99427.72;;;28.16;33.65
16100;BME280;8154;50.830;12.082;2022-08-03T10:58:51;99421.75;;;28.14;33.48
16100;BME280;8154;50.830;12.082;2022-08-03T11:04:33;99408.69;;;28.18;32.80
16100;BME280;8154;50.830;12.082;2022-08-03T11:07:22;99415.00;;;28.23;32.87
16100;BME280;8154;50.830;12.082;2022-08-03T11:10:31;99412.19;;;28.18;32.89
16100;BME280;8154;50.830;12.082;2022-08-03T11:13:18;99410.91;;;28.21;32.54
16100;BME280;8154;50.830;12.082;2022-08-03T11:16:18;99406.59;;;28.20;32.63
16100;BME280;8154;50.830;12.082;2022-08-03T11:19:06;99405.53;;;28.21;32.37
16100;BME280;8154;50.830;12.082;2022-08-03T11:21:51;99406.13;;;28.23;32.31
16100;BME280;8154;50.830;12.082;2022-08-03T11:27:21;99404.59;;;28.15;32.47
16100;BME280;8154;50.830;12.082;2022-08-03T11:30:10;99406.44;;;28.15;32.41
16100;BME280;8154;50.830;12.082;2022-08-03T11:32:58;99396.31;;;28.17;32.35
16100;BME280;8154;50.830;12.082;2022-08-03T11:36:00;99393.38;;;28.18;32.52
16100;BME280;8154;50.830;12.082;2022-08-03T11:39:13;99393.97;;;28.20;31.90
16100;BME280;8154;50.830;12.082;2022-08-03T11:41:57;99393.88;;;28.27;31.92
16100;BME280;8154;50.830;12.082;2022-08-03T11:44:41;99384.88;;;28.21;31.74
16100;BME280;8154;50.830;12.082;2022-08-03T11:47:27;99389.63;;;28.19;31.55
16100;BME280;8154;50.830;12.082;2022-08-03T11:50:12;99388.13;;;28.23;31.55
16100;BME280;8154;50.830;12.082;2022-08-03T11:52:56;99392.47;;;28.24;31.66
16100;BME280;8154;50.830;12.082;2022-08-03T11:55:42;99389.19;;;28.22;31.12
16100;BME280;8154;50.830;12.082;2022-08-03T11:58:29;99379.50;;;28.21;31.41
16100;BME280;8154;50.830;12.082;2022-08-03T12:01:13;99381.13;;;28.22;30.88
16100;BME280;8154;50.830;12.082;2022-08-03T12:04:03;99382.97;;;28.22;31.01
16100;BME280;8154;50.830;12.082;2022-08-03T12:07:01;99379.63;;;28.26;30.76
16100;BME280;8154;50.830;12.082;2022-08-03T12:10:25;99377.50;;;28.28;30.80
16100;BME280;8154;50.830;12.082;2022-08-03T12:13:09;99367.22;;;28.25;30.73
16100;BME280;8154;50.830;12.082;2022-08-03T12:15:57;99368.88;;;28.26;30.60
16100;BME280;8154;50.830;12.082;2022-08-03T12:18:53;99367.69;;;28.22;30.40
16100;BME280;8154;50.830;12.082;2022-08-03T12:21:47;99358.56;;;28.23;30.48
16100;BME280;8154;50.830;12.082;2022-08-03T12:24:40;99354.63;;;28.26;30.47
16100;BME280;8154;50.830;12.082;2022-08-03T12:27:26;99345.25;;;28.28;29.90
16100;BME280;8154;50.830;12.082;2022-08-03T12:30:14;99346.91;;;28.29;30.44
16100;BME280;8154;50.830;12.082;2022-08-03T12:32:58;99343.63;;;28.27;30.40
16100;BME280;8154;50.830;12.082;2022-08-03T12:35:42;99336.97;;;28.30;30.50
16100;BME280;8154;50.830;12.082;2022-08-03T12:38:26;99334.66;;;28.33;30.42
16100;BME280;8154;50.830;12.082;2022-08-03T12:41:11;99337.34;;;28.33;30.57
16100;BME280;8154;50.830;12.082;2022-08-03T12:43:56;99338.63;;;28.31;30.65
16100;BME280;8154;50.830;12.082;2022-08-03T12:46:40;99328.44;;;28.33;30.14
16100;BME280;8154;50.830;12.082;2022-08-03T12:49:25;99331.97;;;28.33;29.90
16100;BME280;8154;50.830;12.082;2022-08-03T12:52:10;99325.41;;;28.29;30.25
16100;BME280;8154;50.830;12.082;2022-08-03T12:54:55;99326.69;;;28.27;29.99
16100;BME280;8154;50.830;12.082;2022-08-03T12:57:40;99320.28;;;28.28;30.21
16100;BME280;8154;50.830;12.082;2022-08-03T13:00:25;99324.34;;;28.30;29.78
16100;BME280;8154;50.830;12.082;2022-08-03T13:03:11;99326.13;;;28.36;29.69
16100;BME280;8154;50.830;12.082;2022-08-03T13:05:55;99322.75;;;28.41;29.87
16100;BME280;8154;50.830;12.082;2022-08-03T13:08:41;99322.28;;;28.44;30.13
16100;BME280;8154;50.830;12.082;2022-08-03T13:11:27;99314.66;;;28.41;30.36
16100;BME280;8154;50.830;12.082;2022-08-03T13:14:11;99316.53;;;28.40;30.14
16100;BME280;8154;50.830;12.082;2022-08-03T13:16:55;99308.22;;;28.42;30.03
16100;BME280;8154;50.830;12.082;2022-08-03T13:19:41;99316.47;;;28.47;29.57
16100;BME280;8154;50.830;12.082;2022-08-03T13:22:26;99302.19;;;28.46;30.16
16100;BME280;8154;50.830;12.082;2022-08-03T13:25:13;99299.13;;;28.43;29.81
16100;BME280;8154;50.830;12.082;2022-08-03T13:27:58;99307.44;;;28.41;30.08
16100;BME280;8154;50.830;12.082;2022-08-03T13:30:42;99290.25;;;28.42;29.91
16100;BME280;8154;50.830;12.082;2022-08-03T13:33:27;99299.59;;;28.40;29.84
16100;BME280;8154;50.830;12.082;2022-08-03T13:36:11;99296.69;;;28.41;30.02
16100;BME280;8154;50.830;12.082;2022-08-03T13:38:55;99295.63;;;28.42;29.66
16100;BME280;8154;50.830;12.082;2022-08-03T13:41:39;99291.91;;;28.43;29.50
16100;BME280;8154;50.830;12.082;2022-08-03T13:44:34;99286.41;;;28.38;30.05
16100;BME280;8154;50.830;12.082;2022-08-03T13:47:21;99285.09;;;28.41;29.60
16100;BME280;8154;50.830;12.082;2022-08-03T13:50:05;99284.28;;;28.40;29.35
16100;BME280;8154;50.830;12.082;2022-08-03T13:52:49;99282.06;;;28.37;29.51
16100;BME280;8154;50.830;12.082;2022-08-03T13:55:34;99268.50;;;28.32;29.96
16100;BME280;8154;50.830;12.082;2022-08-03T13:58:18;99262.44;;;28.37;29.78
16100;BME280;8154;50.830;12.082;2022-08-03T14:01:02;99264.06;;;28.38;29.89
16100;BME280;8154;50.830;12.082;2022-08-03T14:03:46;99265.13;;;28.37;29.72
16100;BME280;8154;50.830;12.082;2022-08-03T14:06:37;99262.06;;;28.33;29.97
16100;BME280;8154;50.830;12.082;2022-08-03T14:09:21;99264.28;;;28.36;30.06
16100;BME280;8154;50.830;12.082;2022-08-03T14:12:06;99272.50;;;28.41;30.16
16100;BME280;8154;50.830;12.082;2022-08-03T14:14:50;99268.06;;;28.47;29.73
16100;BME280;8154;50.830;12.082;2022-08-03T14:17:35;99271.13;;;28.50;29.79
16100;BME280;8154;50.830;12.082;2022-08-03T14:20:18;99268.44;;;28.50;29.84
16100;BME280;8154;50.830;12.082;2022-08-03T14:23:03;99268.44;;;28.50;29.31
16100;BME280;8154;50.830;12.082;2022-08-03T14:25:47;99265.38;;;28.47;29.16
16100;BME280;8154;50.830;12.082;2022-08-03T14:28:32;99260.97;;;28.52;29.11
16100;BME280;8154;50.830;12.082;2022-08-03T14:31:16;99271.59;;;28.47;29.22
16100;BME280;8154;50.830;12.082;2022-08-03T14:34:00;99255.22;;;28.49;29.04
16100;BME280;8154;50.830;12.082;2022-08-03T14:36:44;99256.94;;;28.43;29.00
16100;BME280;8154;50.830;12.082;2022-08-03T14:39:30;99261.50;;;28.43;28.60
16100;BME280;8154;50.830;12.082;2022-08-03T14:42:14;99255.06;;;28.44;28.97
16100;BME280;8154;50.830;12.082;2022-08-03T14:44:59;99252.78;;;28.47;28.95
16100;BME280;8154;50.830;12.082;2022-08-03T14:47:43;99249.03;;;28.48;28.92
16100;BME280;8154;50.830;12.082;2022-08-03T14:50:27;99252.31;;;28.50;28.77
16100;BME280;8154;50.830;12.082;2022-08-03T14:53:12;99252.66;;;28.54;28.67
16100;BME280;8154;50.830;12.082;2022-08-03T14:55:56;99247.28;;;28.54;29.19
16100;BME280;8154;50.830;12.082;2022-08-03T14:58:41;99244.22;;;28.50;29.14
16100;BME280;8154;50.830;12.082;2022-08-03T15:01:25;99241.19;;;28.47;28.92
16100;BME280;8154;50.830;12.082;2022-08-03T15:04:09;99242.00;;;28.47;29.24
16100;BME280;8154;50.830;12.082;2022-08-03T15:06:53;99231.94;;;28.43;29.30